sensor_id;sensor_type;location;lat;lon;timestamp;P1;durP1;ratioP1;P2;durP2;ratioP2
8909;SDS011;4490;49.072;8.804;2023-06-22T00:00:49;6.53;;;5.88;;
8909;SDS011;4490;49.072;8.804;2023-06-22T00:03:15;6.95;;;6.05;;
8909;SDS011;4490;49.072;8.804;2023-06-22T00:05:48;7.28;;;5.75;;
8909;SDS011;4490;49.072;8.804;2023-06-22T00:08:14;7.25;;;5.93;;
8909;SDS011;4490;49.072;8.804;2023-06-22T00:10:40;6.50;;;5.93;;
8909;SDS011;4490;49.072;8.804;2023-06-22T00:13:07;6.78;;;6.07;;
8909;SDS011;4490;49.072;8.804;2023-06-22T00:15:33;8.75;;;6.38;;
8909;SDS011;4490;49.072;8.804;2023-06-22T00:18:00;7.88;;;6.18;;
8909;SDS011;4490;49.072;8.804;2023-06-22T00:20:27;7.35;;;5.72;;
8909;SDS011;4490;49.072;8.804;2023-06-22T00:22:54;6.90;;;6.15;;
8909;SDS011;4490;49.072;8.804;2023-06-22T00:25:20;7.68;;;5.72;;
8909;SDS011;4490;49.072;8.804;2023-06-22T00:27:46;8.25;;;6.35;;
8909;SDS011;4490;49.072;8.804;2023-06-22T00:30:12;8.93;;;6.68;;
8909;SDS011;4490;49.072;8.804;2023-06-22T00:32:38;6.88;;;6.18;;
8909;SDS011;4490;49.072;8.804;2023-06-22T00:35:03;6.72;;;6.05;;
8909;SDS011;4490;49.072;8.804;2023-06-22T00:37:30;7.38;;;6.68;;
8909;SDS011;4490;49.072;8.804;2023-06-22T00:39:55;8.80;;;6.95;;
8909;SDS011;4490;49.072;8.804;2023-06-22T00:42:21;8.43;;;6.28;;
8909;SDS011;4490;49.072;8.804;2023-06-22T00:44:47;9.30;;;6.15;;
8909;SDS011;4490;49.072;8.804;2023-06-22T00:47:14;6.80;;;6.10;;
8909;SDS011;4490;49.072;8.804;2023-06-22T00:49:41;8.50;;;6.70;;
8909;SDS011;4490;49.072;8.804;2023-06-22T00:52:07;7.38;;;6.05;;
8909;SDS011;4490;49.072;8.804;2023-06-22T00:54:34;7.10;;;6.20;;
8909;SDS011;4490;49.072;8.804;2023-06-22T00:57:03;9.75;;;6.13;;
8909;SDS011;4490;49.072;8.804;2023-06-22T00:59:29;11.57;;;7.30;;
8909;SDS011;4490;49.072;8.804;2023-06-22T01:01:57;9.57;;;7.65;;
8909;SDS011;4490;49.072;8.804;2023-06-22T01:04:24;9.25;;;7.90;;
8909;SDS011;4490;49.072;8.804;2023-06-22T01:07:04;10.13;;;7.68;;
8909;SDS011;4490;49.072;8.804;2023-06-22T01:09:41;10.77;;;7.45;;
8909;SDS011;4490;49.072;8.804;2023-06-22T01:12:19;10.57;;;6.97;;
8909;SDS011;4490;49.072;8.804;2023-06-22T01:14:50;11.57;;;8.48;;
8909;SDS011;4490;49.072;8.804;2023-06-22T01:17:21;10.05;;;8.23;;
8909;SDS011;4490;49.072;8.804;2023-06-22T01:19:50;13.38;;;8.27;;
8909;SDS011;4490;49.072;8.804;2023-06-22T01:22:21;10.25;;;8.10;;
8909;SDS011;4490;49.072;8.804;2023-06-22T01:24:57;10.75;;;8.60;;
8909;SDS011;4490;49.072;8.804;2023-06-22T01:27:46;9.30;;;8.25;;
8909;SDS011;4490;49.072;8.804;2023-06-22T01:30:40;10.68;;;8.50;;
8909;SDS011;4490;49.072;8.804;2023-06-22T01:33:07;9.90;;;8.00;;
8909;SDS011;4490;49.072;8.804;2023-06-22T01:35:37;9.98;;;8.93;;
8909;SDS011;4490;49.072;8.804;2023-06-22T01:38:04;9.55;;;7.80;;
8909;SDS011;4490;49.072;8.804;2023-06-22T01:40:30;11.20;;;8.15;;
8909;SDS011;4490;49.072;8.804;2023-06-22T01:42:58;10.80;;;8.93;;
8909;SDS011;4490;49.072;8.804;2023-06-22T01:45:26;10.65;;;9.10;;
8909;SDS011;4490;49.072;8.804;2023-06-22T01:47:52;11.13;;;9.50;;
8909;SDS011;4490;49.072;8.804;2023-06-22T01:50:19;11.15;;;8.63;;
8909;SDS011;4490;49.072;8.804;2023-06-22T01:52:45;9.18;;;8.13;;
8909;SDS011;4490;49.072;8.804;2023-06-22T01:55:10;10.60;;;8.75;;
8909;SDS011;4490;49.072;8.804;2023-06-22T01:57:36;11.07;;;8.70;;
8909;SDS011;4490;49.072;8.804;2023-06-22T02:00:04;13.43;;;9.25;;
8909;SDS011;4490;49.072;8.804;2023-06-22T02:02:42;10.82;;;9.32;;
8909;SDS011;4490;49.072;8.804;2023-06-22T02:05:30;11.77;;;9.38;;
8909;SDS011;4490;49.072;8.804;2023-06-22T02:10:29;15.80;;;9.27;;
8909;SDS011;4490;49.072;8.804;2023-06-22T02:12:56;9.80;;;8.60;;
8909;SDS011;4490;49.072;8.804;2023-06-22T02:15:23;10.20;;;8.88;;
8909;SDS011;4490;49.072;8.804;2023-06-22T02:17:49;11.40;;;8.32;;
8909;SDS011;4490;49.072;8.804;2023-06-22T02:20:15;11.93;;;8.70;;
8909;SDS011;4490;49.072;8.804;2023-06-22T02:22:41;11.38;;;9.63;;
8909;SDS011;4490;49.072;8.804;2023-06-22T02:25:07;10.60;;;9.55;;
8909;SDS011;4490;49.072;8.804;2023-06-22T02:27:33;14.45;;;9.75;;
8909;SDS011;4490;49.072;8.804;2023-06-22T02:29:58;11.18;;;9.60;;
8909;SDS011;4490;49.072;8.804;2023-06-22T02:32:24;10.10;;;9.05;;
8909;SDS011;4490;49.072;8.804;2023-06-22T02:34:50;14.45;;;10.10;;
8909;SDS011;4490;49.072;8.804;2023-06-22T02:37:15;11.98;;;9.95;;
8909;SDS011;4490;49.072;8.804;2023-06-22T02:39:41;10.52;;;9.38;;
8909;SDS011;4490;49.072;8.804;2023-06-22T02:42:07;10.57;;;9.50;;
8909;SDS011;4490;49.072;8.804;2023-06-22T02:44:35;11.35;;;10.15;;
8909;SDS011;4490;49.072;8.804;2023-06-22T02:47:01;12.27;;;10.25;;
8909;SDS011;4490;49.072;8.804;2023-06-22T02:49:27;11.15;;;9.98;;
8909;SDS011;4490;49.072;8.804;2023-06-22T02:51:52;11.02;;;9.77;;
8909;SDS011;4490;49.072;8.804;2023-06-22T02:54:18;14.02;;;10.27;;
8909;SDS011;4490;49.072;8.804;2023-06-22T02:56:44;12.55;;;9.82;;
8909;SDS011;4490;49.072;8.804;2023-06-22T02:59:10;12.65;;;10.45;;
8909;SDS011;4490;49.072;8.804;2023-06-22T03:01:36;14.60;;;10.05;;
8909;SDS011;4490;49.072;8.804;2023-06-22T03:04:06;12.48;;;9.77;;
8909;SDS011;4490;49.072;8.804;2023-06-22T03:06:32;14.27;;;10.07;;
8909;SDS011;4490;49.072;8.804;2023-06-22T03:09:02;15.15;;;9.80;;
8909;SDS011;4490;49.072;8.804;2023-06-22T03:11:33;17.20;;;10.88;;
8909;SDS011;4490;49.072;8.804;2023-06-22T03:13:59;11.60;;;9.95;;
8909;SDS011;4490;49.072;8.804;2023-06-22T03:16:26;12.25;;;10.20;;
8909;SDS011;4490;49.072;8.804;2023-06-22T03:18:51;14.60;;;10.45;;
8909;SDS011;4490;49.072;8.804;2023-06-22T03:21:18;10.90;;;9.80;;
8909;SDS011;4490;49.072;8.804;2023-06-22T03:23:44;11.27;;;10.18;;
8909;SDS011;4490;49.072;8.804;2023-06-22T03:26:10;14.23;;;10.75;;
8909;SDS011;4490;49.072;8.804;2023-06-22T03:28:36;15.50;;;10.43;;
8909;SDS011;4490;49.072;8.804;2023-06-22T03:31:03;14.32;;;11.52;;
8909;SDS011;4490;49.072;8.804;2023-06-22T03:33:29;15.43;;;10.70;;
8909;SDS011;4490;49.072;8.804;2023-06-22T03:35:54;14.07;;;11.07;;
8909;SDS011;4490;49.072;8.804;2023-06-22T03:38:20;13.80;;;11.07;;
8909;SDS011;4490;49.072;8.804;2023-06-22T03:40:46;15.23;;;11.00;;
8909;SDS011;4490;49.072;8.804;2023-06-22T03:43:11;14.70;;;10.80;;
8909;SDS011;4490;49.072;8.804;2023-06-22T03:45:37;12.30;;;10.80;;
8909;SDS011;4490;49.072;8.804;2023-06-22T03:48:03;13.10;;;11.00;;
8909;SDS011;4490;49.072;8.804;2023-06-22T03:50:28;15.10;;;11.77;;
8909;SDS011;4490;49.072;8.804;2023-06-22T03:52:55;16.75;;;11.60;;
8909;SDS011;4490;49.072;8.804;2023-06-22T03:55:20;16.95;;;11.98;;
8909;SDS011;4490;49.072;8.804;2023-06-22T03:57:46;15.02;;;11.20;;
8909;SDS011;4490;49.072;8.804;2023-06-22T04:00:12;14.98;;;10.75;;
8909;SDS011;4490;49.072;8.804;2023-06-22T04:02:38;12.57;;;11.27;;
8909;SDS011;4490;49.072;8.804;2023-06-22T04:05:04;15.60;;;11.95;;
8909;SDS011;4490;49.072;8.804;2023-06-22T04:07:30;16.05;;;11.60;;
8909;SDS011;4490;49.072;8.804;2023-06-22T04:09:55;12.07;;;10.02;;
8909;SDS011;4490;49.072;8.804;2023-06-22T04:12:21;16.25;;;11.25;;
8909;SDS011;4490;49.072;8.804;2023-06-22T04:14:46;13.00;;;10.93;;
8909;SDS011;4490;49.072;8.804;2023-06-22T04:17:12;16.13;;;10.95;;
8909;SDS011;4490;49.072;8.804;2023-06-22T04:19:39;14.65;;;10.55;;
8909;SDS011;4490;49.072;8.804;2023-06-22T04:22:05;12.02;;;10.38;;
8909;SDS011;4490;49.072;8.804;2023-06-22T04:24:32;14.35;;;11.93;;
8909;SDS011;4490;49.072;8.804;2023-06-22T04:26:58;16.00;;;11.82;;
8909;SDS011;4490;49.072;8.804;2023-06-22T04:29:27;16.95;;;11.80;;
8909;SDS011;4490;49.072;8.804;2023-06-22T04:31:55;18.10;;;12.13;;
8909;SDS011;4490;49.072;8.804;2023-06-22T04:34:23;15.98;;;12.15;;
8909;SDS011;4490;49.072;8.804;2023-06-22T04:36:51;18.48;;;11.70;;
8909;SDS011;4490;49.072;8.804;2023-06-22T04:39:17;12.75;;;11.40;;
8909;SDS011;4490;49.072;8.804;2023-06-22T04:41:44;14.57;;;11.43;;
8909;SDS011;4490;49.072;8.804;2023-06-22T04:44:10;19.05;;;12.15;;
8909;SDS011;4490;49.072;8.804;2023-06-22T04:46:48;17.58;;;12.10;;
8909;SDS011;4490;49.072;8.804;2023-06-22T04:49:19;15.68;;;11.73;;
8909;SDS011;4490;49.072;8.804;2023-06-22T04:51:46;18.40;;;10.98;;
8909;SDS011;4490;49.072;8.804;2023-06-22T04:54:11;13.80;;;11.80;;
8909;SDS011;4490;49.072;8.804;2023-06-22T04:56:37;15.98;;;11.57;;
8909;SDS011;4490;49.072;8.804;2023-06-22T04:59:05;17.25;;;11.32;;
8909;SDS011;4490;49.072;8.804;2023-06-22T05:01:32;16.80;;;11.13;;
8909;SDS011;4490;49.072;8.804;2023-06-22T05:03:57;16.30;;;10.98;;
8909;SDS011;4490;49.072;8.804;2023-06-22T05:06:26;15.90;;;11.93;;
8909;SDS011;4490;49.072;8.804;2023-06-22T05:08:55;13.68;;;11.02;;
8909;SDS011;4490;49.072;8.804;2023-06-22T05:11:25;17.00;;;11.55;;
8909;SDS011;4490;49.072;8.804;2023-06-22T05:13:54;18.52;;;12.27;;
8909;SDS011;4490;49.072;8.804;2023-06-22T05:16:21;15.00;;;11.63;;
8909;SDS011;4490;49.072;8.804;2023-06-22T05:18:55;16.05;;;11.25;;
8909;SDS011;4490;49.072;8.804;2023-06-22T05:21:22;16.42;;;10.63;;
8909;SDS011;4490;49.072;8.804;2023-06-22T05:23:49;15.90;;;11.65;;
8909;SDS011;4490;49.072;8.804;2023-06-22T05:26:15;17.73;;;11.70;;
8909;SDS011;4490;49.072;8.804;2023-06-22T05:28:41;14.68;;;11.00;;
8909;SDS011;4490;49.072;8.804;2023-06-22T05:31:06;16.08;;;11.65;;
8909;SDS011;4490;49.072;8.804;2023-06-22T05:33:32;16.20;;;11.05;;
8909;SDS011;4490;49.072;8.804;2023-06-22T05:35:58;14.77;;;11.48;;
8909;SDS011;4490;49.072;8.804;2023-06-22T05:38:23;16.80;;;11.93;;
8909;SDS011;4490;49.072;8.804;2023-06-22T05:40:49;13.98;;;11.15;;
8909;SDS011;4490;49.072;8.804;2023-06-22T05:43:15;15.25;;;11.05;;
8909;SDS011;4490;49.072;8.804;2023-06-22T05:45:40;13.13;;;10.73;;
8909;SDS011;4490;49.072;8.804;2023-06-22T05:48:06;12.13;;;10.10;;
8909;SDS011;4490;49.072;8.804;2023-06-22T05:50:32;13.50;;;11.27;;
8909;SDS011;4490;49.072;8.804;2023-06-22T05:52:57;14.32;;;10.60;;
8909;SDS011;4490;49.072;8.804;2023-06-22T05:55:23;14.00;;;10.68;;
8909;SDS011;4490;49.072;8.804;2023-06-22T05:57:48;10.85;;;9.70;;
8909;SDS011;4490;49.072;8.804;2023-06-22T06:00:14;10.55;;;9.30;;
8909;SDS011;4490;49.072;8.804;2023-06-22T06:02:40;12.43;;;9.32;;
8909;SDS011;4490;49.072;8.804;2023-06-22T06:05:11;13.75;;;9.00;;
8909;SDS011;4490;49.072;8.804;2023-06-22T06:07:39;9.95;;;8.93;;
8909;SDS011;4490;49.072;8.804;2023-06-22T06:10:05;12.32;;;9.57;;
8909;SDS011;4490;49.072;8.804;2023-06-22T06:12:31;10.43;;;8.60;;
8909;SDS011;4490;49.072;8.804;2023-06-22T06:14:57;14.50;;;8.90;;
8909;SDS011;4490;49.072;8.804;2023-06-22T06:17:24;9.10;;;8.18;;
8909;SDS011;4490;49.072;8.804;2023-06-22T06:19:50;9.77;;;8.30;;
8909;SDS011;4490;49.072;8.804;2023-06-22T06:22:15;12.43;;;8.80;;
8909;SDS011;4490;49.072;8.804;2023-06-22T06:24:41;11.85;;;8.48;;
8909;SDS011;4490;49.072;8.804;2023-06-22T06:27:06;9.27;;;8.23;;
8909;SDS011;4490;49.072;8.804;2023-06-22T06:29:33;9.18;;;7.80;;
8909;SDS011;4490;49.072;8.804;2023-06-22T06:31:58;10.00;;;7.35;;
8909;SDS011;4490;49.072;8.804;2023-06-22T06:34:24;9.52;;;8.23;;
8909;SDS011;4490;49.072;8.804;2023-06-22T06:36:49;9.90;;;7.93;;
8909;SDS011;4490;49.072;8.804;2023-06-22T06:39:15;8.23;;;7.15;;
8909;SDS011;4490;49.072;8.804;2023-06-22T06:41:41;8.70;;;7.90;;
8909;SDS011;4490;49.072;8.804;2023-06-22T06:44:07;10.00;;;7.93;;
8909;SDS011;4490;49.072;8.804;2023-06-22T06:46:32;9.63;;;7.22;;
8909;SDS011;4490;49.072;8.804;2023-06-22T06:48:58;9.77;;;7.95;;
8909;SDS011;4490;49.072;8.804;2023-06-22T06:51:23;10.07;;;6.78;;
8909;SDS011;4490;49.072;8.804;2023-06-22T06:53:49;9.07;;;6.95;;
8909;SDS011;4490;49.072;8.804;2023-06-22T06:56:15;10.85;;;7.35;;
8909;SDS011;4490;49.072;8.804;2023-06-22T06:58:41;9.63;;;6.78;;
8909;SDS011;4490;49.072;8.804;2023-06-22T07:01:10;9.23;;;7.25;;
8909;SDS011;4490;49.072;8.804;2023-06-22T07:03:38;7.72;;;6.97;;
8909;SDS011;4490;49.072;8.804;2023-06-22T07:06:04;9.77;;;6.90;;
8909;SDS011;4490;49.072;8.804;2023-06-22T07:08:29;7.90;;;7.10;;
8909;SDS011;4490;49.072;8.804;2023-06-22T07:10:55;10.23;;;7.18;;
8909;SDS011;4490;49.072;8.804;2023-06-22T07:13:21;7.80;;;6.57;;
8909;SDS011;4490;49.072;8.804;2023-06-22T07:15:46;8.02;;;6.65;;
8909;SDS011;4490;49.072;8.804;2023-06-22T07:18:12;7.22;;;6.10;;
8909;SDS011;4490;49.072;8.804;2023-06-22T07:20:38;8.60;;;6.80;;
8909;SDS011;4490;49.072;8.804;2023-06-22T07:23:04;9.73;;;7.28;;
8909;SDS011;4490;49.072;8.804;2023-06-22T07:25:30;7.70;;;6.90;;
8909;SDS011;4490;49.072;8.804;2023-06-22T07:30:24;9.27;;;6.60;;
8909;SDS011;4490;49.072;8.804;2023-06-22T07:32:50;7.57;;;6.30;;
8909;SDS011;4490;49.072;8.804;2023-06-22T07:35:15;6.70;;;5.95;;
8909;SDS011;4490;49.072;8.804;2023-06-22T07:37:41;7.35;;;6.65;;
8909;SDS011;4490;49.072;8.804;2023-06-22T07:40:07;9.35;;;7.03;;
8909;SDS011;4490;49.072;8.804;2023-06-22T07:42:34;10.05;;;6.97;;
8909;SDS011;4490;49.072;8.804;2023-06-22T07:45:00;8.45;;;6.97;;
8909;SDS011;4490;49.072;8.804;2023-06-22T07:47:27;7.72;;;6.70;;
8909;SDS011;4490;49.072;8.804;2023-06-22T07:49:53;8.75;;;6.45;;
8909;SDS011;4490;49.072;8.804;2023-06-22T07:52:20;7.97;;;6.72;;
8909;SDS011;4490;49.072;8.804;2023-06-22T07:54:46;9.85;;;6.53;;
8909;SDS011;4490;49.072;8.804;2023-06-22T07:57:12;7.35;;;6.32;;
8909;SDS011;4490;49.072;8.804;2023-06-22T07:59:38;7.63;;;6.72;;
8909;SDS011;4490;49.072;8.804;2023-06-22T08:02:03;8.20;;;6.28;;
8909;SDS011;4490;49.072;8.804;2023-06-22T08:04:29;10.20;;;6.00;;
8909;SDS011;4490;49.072;8.804;2023-06-22T08:06:56;12.75;;;6.68;;
8909;SDS011;4490;49.072;8.804;2023-06-22T08:09:22;8.07;;;6.45;;
8909;SDS011;4490;49.072;8.804;2023-06-22T08:11:48;8.68;;;6.43;;
8909;SDS011;4490;49.072;8.804;2023-06-22T08:14:14;11.13;;;6.63;;
8909;SDS011;4490;49.072;8.804;2023-06-22T08:16:41;7.50;;;6.63;;
8909;SDS011;4490;49.072;8.804;2023-06-22T08:19:07;7.05;;;6.35;;
8909;SDS011;4490;49.072;8.804;2023-06-22T08:21:32;8.07;;;6.18;;
8909;SDS011;4490;49.072;8.804;2023-06-22T08:23:58;7.45;;;6.68;;
8909;SDS011;4490;49.072;8.804;2023-06-22T08:26:23;9.05;;;6.10;;
8909;SDS011;4490;49.072;8.804;2023-06-22T08:28:49;8.43;;;6.18;;
8909;SDS011;4490;49.072;8.804;2023-06-22T08:31:15;9.90;;;5.47;;
8909;SDS011;4490;49.072;8.804;2023-06-22T08:33:40;6.65;;;5.95;;
8909;SDS011;4490;49.072;8.804;2023-06-22T08:36:08;10.65;;;6.32;;
8909;SDS011;4490;49.072;8.804;2023-06-22T08:38:35;7.13;;;6.25;;
8909;SDS011;4490;49.072;8.804;2023-06-22T08:41:01;7.78;;;5.78;;
8909;SDS011;4490;49.072;8.804;2023-06-22T08:43:27;9.75;;;5.65;;
8909;SDS011;4490;49.072;8.804;2023-06-22T08:45:53;8.30;;;5.50;;
8909;SDS011;4490;49.072;8.804;2023-06-22T08:48:19;8.60;;;6.25;;
8909;SDS011;4490;49.072;8.804;2023-06-22T08:50:44;7.82;;;5.65;;
8909;SDS011;4490;49.072;8.804;2023-06-22T08:53:10;7.75;;;5.95;;
8909;SDS011;4490;49.072;8.804;2023-06-22T08:55:35;7.80;;;5.53;;
8909;SDS011;4490;49.072;8.804;2023-06-22T08:58:01;7.65;;;5.75;;
8909;SDS011;4490;49.072;8.804;2023-06-22T09:00:27;7.57;;;5.63;;
8909;SDS011;4490;49.072;8.804;2023-06-22T09:02:54;7.13;;;5.82;;
8909;SDS011;4490;49.072;8.804;2023-06-22T09:05:24;8.45;;;5.65;;
8909;SDS011;4490;49.072;8.804;2023-06-22T09:07:56;8.73;;;6.43;;
8909;SDS011;4490;49.072;8.804;2023-06-22T09:10:23;7.13;;;5.47;;
8909;SDS011;4490;49.072;8.804;2023-06-22T09:12:51;7.90;;;5.85;;
8909;SDS011;4490;49.072;8.804;2023-06-22T09:15:17;8.85;;;6.43;;
8909;SDS011;4490;49.072;8.804;2023-06-22T09:17:44;8.77;;;6.20;;
8909;SDS011;4490;49.072;8.804;2023-06-22T09:20:11;7.78;;;6.05;;
8909;SDS011;4490;49.072;8.804;2023-06-22T09:22:37;8.55;;;6.30;;
8909;SDS011;4490;49.072;8.804;2023-06-22T09:25:04;6.97;;;5.90;;
8909;SDS011;4490;49.072;8.804;2023-06-22T09:27:30;7.35;;;6.20;;
8909;SDS011;4490;49.072;8.804;2023-06-22T09:29:55;7.63;;;5.95;;
8909;SDS011;4490;49.072;8.804;2023-06-22T09:32:23;9.75;;;5.90;;
8909;SDS011;4490;49.072;8.804;2023-06-22T09:34:50;9.32;;;6.55;;
8909;SDS011;4490;49.072;8.804;2023-06-22T09:37:15;7.65;;;5.97;;
8909;SDS011;4490;49.072;8.804;2023-06-22T09:39:41;8.95;;;6.10;;
8909;SDS011;4490;49.072;8.804;2023-06-22T09:42:06;6.97;;;5.72;;
8909;SDS011;4490;49.072;8.804;2023-06-22T09:44:33;9.77;;;6.72;;
8909;SDS011;4490;49.072;8.804;2023-06-22T09:46:58;7.88;;;6.05;;
8909;SDS011;4490;49.072;8.804;2023-06-22T09:49:24;11.02;;;6.38;;
8909;SDS011;4490;49.072;8.804;2023-06-22T09:51:50;8.57;;;6.30;;
8909;SDS011;4490;49.072;8.804;2023-06-22T09:54:16;7.53;;;5.97;;
8909;SDS011;4490;49.072;8.804;2023-06-22T09:56:41;8.65;;;6.45;;
8909;SDS011;4490;49.072;8.804;2023-06-22T09:59:07;11.48;;;6.65;;
8909;SDS011;4490;49.072;8.804;2023-06-22T10:01:32;8.70;;;5.97;;
8909;SDS011;4490;49.072;8.804;2023-06-22T10:03:58;9.98;;;6.65;;
8909;SDS011;4490;49.072;8.804;2023-06-22T10:06:24;7.85;;;5.78;;
8909;SDS011;4490;49.072;8.804;2023-06-22T10:08:50;8.45;;;6.43;;
8909;SDS011;4490;49.072;8.804;2023-06-22T10:11:16;8.10;;;6.30;;
8909;SDS011;4490;49.072;8.804;2023-06-22T10:13:42;9.35;;;6.25;;
8909;SDS011;4490;49.072;8.804;2023-06-22T10:16:08;7.88;;;5.80;;
8909;SDS011;4490;49.072;8.804;2023-06-22T10:18:33;9.18;;;6.70;;
8909;SDS011;4490;49.072;8.804;2023-06-22T10:20:59;7.50;;;6.60;;
8909;SDS011;4490;49.072;8.804;2023-06-22T10:23:25;9.40;;;6.43;;
8909;SDS011;4490;49.072;8.804;2023-06-22T10:25:51;8.00;;;6.47;;
8909;SDS011;4490;49.072;8.804;2023-06-22T10:28:16;10.20;;;6.47;;
8909;SDS011;4490;49.072;8.804;2023-06-22T10:30:42;8.98;;;6.43;;
8909;SDS011;4490;49.072;8.804;2023-06-22T10:33:11;10.07;;;6.60;;
8909;SDS011;4490;49.072;8.804;2023-06-22T10:35:37;10.82;;;6.57;;
8909;SDS011;4490;49.072;8.804;2023-06-22T10:38:04;10.48;;;6.70;;
8909;SDS011;4490;49.072;8.804;2023-06-22T10:40:30;9.65;;;6.15;;
8909;SDS011;4490;49.072;8.804;2023-06-22T10:42:56;12.93;;;7.18;;
8909;SDS011;4490;49.072;8.804;2023-06-22T10:45:22;8.13;;;6.20;;
8909;SDS011;4490;49.072;8.804;2023-06-22T10:47:47;8.95;;;6.60;;
8909;SDS011;4490;49.072;8.804;2023-06-22T10:50:13;8.75;;;6.47;;
8909;SDS011;4490;49.072;8.804;2023-06-22T10:52:39;7.13;;;6.28;;
8909;SDS011;4490;49.072;8.804;2023-06-22T10:55:06;10.13;;;6.25;;
8909;SDS011;4490;49.072;8.804;2023-06-22T10:57:33;9.85;;;6.35;;
8909;SDS011;4490;49.072;8.804;2023-06-22T10:59:59;10.88;;;6.38;;
8909;SDS011;4490;49.072;8.804;2023-06-22T11:02:24;9.48;;;6.22;;
8909;SDS011;4490;49.072;8.804;2023-06-22T11:04:50;9.35;;;6.35;;
8909;SDS011;4490;49.072;8.804;2023-06-22T11:07:15;8.10;;;6.18;;
8909;SDS011;4490;49.072;8.804;2023-06-22T11:09:42;9.93;;;6.82;;
8909;SDS011;4490;49.072;8.804;2023-06-22T11:12:08;11.07;;;6.68;;
8909;SDS011;4490;49.072;8.804;2023-06-22T11:14:34;9.43;;;6.68;;
8909;SDS011;4490;49.072;8.804;2023-06-22T11:16:59;9.48;;;6.68;;
8909;SDS011;4490;49.072;8.804;2023-06-22T11:19:25;7.32;;;6.43;;
8909;SDS011;4490;49.072;8.804;2023-06-22T11:21:51;7.47;;;6.78;;
8909;SDS011;4490;49.072;8.804;2023-06-22T11:24:16;10.05;;;6.88;;
8909;SDS011;4490;49.072;8.804;2023-06-22T11:26:42;8.38;;;6.25;;
8909;SDS011;4490;49.072;8.804;2023-06-22T11:29:08;10.05;;;6.85;;
8909;SDS011;4490;49.072;8.804;2023-06-22T11:31:34;9.15;;;6.22;;
8909;SDS011;4490;49.072;8.804;2023-06-22T11:34:00;11.23;;;7.32;;
8909;SDS011;4490;49.072;8.804;2023-06-22T11:36:26;9.73;;;5.78;;
8909;SDS011;4490;49.072;8.804;2023-06-22T11:38:52;9.90;;;6.65;;
8909;SDS011;4490;49.072;8.804;2023-06-22T11:41:18;15.50;;;6.30;;
8909;SDS011;4490;49.072;8.804;2023-06-22T11:43:44;8.07;;;5.80;;
8909;SDS011;4490;49.072;8.804;2023-06-22T11:46:09;8.35;;;5.80;;
8909;SDS011;4490;49.072;8.804;2023-06-22T11:48:35;8.93;;;6.32;;
8909;SDS011;4490;49.072;8.804;2023-06-22T11:51:01;15.60;;;6.55;;
8909;SDS011;4490;49.072;8.804;2023-06-22T11:53:28;8.35;;;6.55;;
8909;SDS011;4490;49.072;8.804;2023-06-22T11:55:54;10.27;;;6.82;;
8909;SDS011;4490;49.072;8.804;2023-06-22T11:58:20;8.13;;;6.55;;
8909;SDS011;4490;49.072;8.804;2023-06-22T12:00:45;11.02;;;6.57;;
8909;SDS011;4490;49.072;8.804;2023-06-22T12:03:11;9.60;;;5.82;;
8909;SDS011;4490;49.072;8.804;2023-06-22T12:05:37;9.38;;;6.22;;
8909;SDS011;4490;49.072;8.804;2023-06-22T12:08:03;10.25;;;6.15;;
8909;SDS011;4490;49.072;8.804;2023-06-22T12:10:29;10.30;;;6.22;;
8909;SDS011;4490;49.072;8.804;2023-06-22T12:12:55;11.13;;;7.00;;
8909;SDS011;4490;49.072;8.804;2023-06-22T12:15:22;8.23;;;5.55;;
8909;SDS011;4490;49.072;8.804;2023-06-22T12:17:48;8.73;;;6.30;;
8909;SDS011;4490;49.072;8.804;2023-06-22T12:20:14;6.35;;;5.65;;
8909;SDS011;4490;49.072;8.804;2023-06-22T12:22:40;9.52;;;6.43;;
8909;SDS011;4490;49.072;8.804;2023-06-22T12:25:06;7.18;;;6.40;;
8909;SDS011;4490;49.072;8.804;2023-06-22T12:27:32;11.35;;;6.68;;
8909;SDS011;4490;49.072;8.804;2023-06-22T12:29:58;6.95;;;5.95;;
8909;SDS011;4490;49.072;8.804;2023-06-22T12:32:23;12.00;;;6.65;;
8909;SDS011;4490;49.072;8.804;2023-06-22T12:34:50;10.65;;;6.72;;
8909;SDS011;4490;49.072;8.804;2023-06-22T12:37:16;10.93;;;6.57;;
8909;SDS011;4490;49.072;8.804;2023-06-22T12:39:42;8.80;;;6.57;;
8909;SDS011;4490;49.072;8.804;2023-06-22T12:42:08;10.45;;;6.93;;
8909;SDS011;4490;49.072;8.804;2023-06-22T12:44:35;10.48;;;6.60;;
8909;SDS011;4490;49.072;8.804;2023-06-22T12:47:00;10.35;;;6.72;;
8909;SDS011;4490;49.072;8.804;2023-06-22T12:49:26;10.23;;;6.45;;
8909;SDS011;4490;49.072;8.804;2023-06-22T12:51:52;8.77;;;6.28;;
8909;SDS011;4490;49.072;8.804;2023-06-22T12:54:17;10.35;;;6.45;;
8909;SDS011;4490;49.072;8.804;2023-06-22T12:56:43;13.73;;;6.90;;
8909;SDS011;4490;49.072;8.804;2023-06-22T12:59:10;13.65;;;7.18;;
8909;SDS011;4490;49.072;8.804;2023-06-22T13:01:36;10.85;;;6.57;;
8909;SDS011;4490;49.072;8.804;2023-06-22T13:04:02;10.93;;;6.88;;
8909;SDS011;4490;49.072;8.804;2023-06-22T13:06:28;11.48;;;7.22;;
8909;SDS011;4490;49.072;8.804;2023-06-22T13:08:54;10.70;;;7.05;;
8909;SDS011;4490;49.072;8.804;2023-06-22T13:11:20;9.43;;;7.20;;
8909;SDS011;4490;49.072;8.804;2023-06-22T13:13:45;10.38;;;6.38;;
8909;SDS011;4490;49.072;8.804;2023-06-22T13:16:12;10.45;;;6.90;;
8909;SDS011;4490;49.072;8.804;2023-06-22T13:18:38;7.75;;;6.70;;
8909;SDS011;4490;49.072;8.804;2023-06-22T13:21:03;13.57;;;6.57;;
8909;SDS011;4490;49.072;8.804;2023-06-22T13:23:29;8.88;;;7.00;;
8909;SDS011;4490;49.072;8.804;2023-06-22T13:25:56;8.27;;;6.38;;
8909;SDS011;4490;49.072;8.804;2023-06-22T13:28:23;12.10;;;7.13;;
8909;SDS011;4490;49.072;8.804;2023-06-22T13:30:48;11.77;;;6.80;;
8909;SDS011;4490;49.072;8.804;2023-06-22T13:33:14;9.18;;;6.93;;
8909;SDS011;4490;49.072;8.804;2023-06-22T13:35:40;12.05;;;6.47;;
8909;SDS011;4490;49.072;8.804;2023-06-22T13:38:07;11.18;;;7.20;;
8909;SDS011;4490;49.072;8.804;2023-06-22T13:40:36;8.80;;;7.32;;
8909;SDS011;4490;49.072;8.804;2023-06-22T13:43:03;11.45;;;7.00;;
8909;SDS011;4490;49.072;8.804;2023-06-22T13:45:29;14.13;;;7.40;;
8909;SDS011;4490;49.072;8.804;2023-06-22T13:47:55;10.70;;;6.90;;
8909;SDS011;4490;49.072;8.804;2023-06-22T13:50:21;9.30;;;6.50;;
8909;SDS011;4490;49.072;8.804;2023-06-22T13:52:47;12.50;;;7.38;;
8909;SDS011;4490;49.072;8.804;2023-06-22T13:55:13;11.70;;;6.60;;
8909;SDS011;4490;49.072;8.804;2023-06-22T13:57:39;9.77;;;7.00;;
8909;SDS011;4490;49.072;8.804;2023-06-22T14:00:06;10.95;;;7.03;;
8909;SDS011;4490;49.072;8.804;2023-06-22T14:02:35;8.85;;;6.55;;
8909;SDS011;4490;49.072;8.804;2023-06-22T14:05:00;10.90;;;7.05;;
8909;SDS011;4490;49.072;8.804;2023-06-22T14:07:27;10.52;;;6.57;;
8909;SDS011;4490;49.072;8.804;2023-06-22T14:09:53;10.43;;;7.00;;
8909;SDS011;4490;49.072;8.804;2023-06-22T14:12:18;12.18;;;6.55;;
8909;SDS011;4490;49.072;8.804;2023-06-22T14:14:44;10.68;;;6.70;;
8909;SDS011;4490;49.072;8.804;2023-06-22T14:17:10;8.73;;;6.75;;
8909;SDS011;4490;49.072;8.804;2023-06-22T14:19:36;9.93;;;6.70;;
8909;SDS011;4490;49.072;8.804;2023-06-22T14:22:02;8.85;;;6.60;;
8909;SDS011;4490;49.072;8.804;2023-06-22T14:24:28;9.80;;;7.03;;
8909;SDS011;4490;49.072;8.804;2023-06-22T14:26:54;9.98;;;6.50;;
8909;SDS011;4490;49.072;8.804;2023-06-22T14:29:20;8.77;;;6.40;;
8909;SDS011;4490;49.072;8.804;2023-06-22T14:31:46;10.13;;;6.80;;
8909;SDS011;4490;49.072;8.804;2023-06-22T14:34:13;14.43;;;6.75;;
8909;SDS011;4490;49.072;8.804;2023-06-22T14:36:39;13.50;;;7.03;;
8909;SDS011;4490;49.072;8.804;2023-06-22T14:39:04;12.95;;;7.32;;
8909;SDS011;4490;49.072;8.804;2023-06-22T14:41:30;14.73;;;7.30;;
8909;SDS011;4490;49.072;8.804;2023-06-22T14:43:56;11.65;;;7.22;;
8909;SDS011;4490;49.072;8.804;2023-06-22T14:46:22;9.35;;;6.63;;
8909;SDS011;4490;49.072;8.804;2023-06-22T14:48:48;11.15;;;7.35;;
8909;SDS011;4490;49.072;8.804;2023-06-22T14:51:14;9.80;;;7.25;;
8909;SDS011;4490;49.072;8.804;2023-06-22T14:53:40;9.18;;;7.70;;
8909;SDS011;4490;49.072;8.804;2023-06-22T14:56:06;11.48;;;6.97;;
8909;SDS011;4490;49.072;8.804;2023-06-22T14:58:32;12.55;;;7.72;;
8909;SDS011;4490;49.072;8.804;2023-06-22T15:01:01;10.52;;;7.25;;
8909;SDS011;4490;49.072;8.804;2023-06-22T15:03:28;12.85;;;7.85;;
8909;SDS011;4490;49.072;8.804;2023-06-22T15:05:56;9.82;;;7.25;;